Time;durP1;ratioP1;P1;durP2;ratioP2;P2;SDS_P1;SDS_P2;PMS_P1;PMS_P2;Temp;Humidity;BMP_temperature;BMP_pressure;BME280_temperature;BME280_humidity;BME280_pressure;Samples;Min_cycle;Max_cycle;Signal;HPM_P1;HPM_P2
2022/01/12 00:01:13;;;;;;;93.55;31.63;;;3.20;99.90;;;;;;4992587;28;20216;-86
2022/01/12 00:03:39;;;;;;;94.70;30.15;;;3.30;99.90;;;;;;5011638;28;20140;-84
2022/01/12 00:06:05;;;;;;;98.18;31.25;;;3.40;99.90;;;;;;5012054;28;20526;-83
2022/01/12 00:08:32;;;;;;;106.32;33.38;;;3.20;99.90;;;;;;5011808;28;20042;-83
2022/01/12 00:10:59;;;;;;;106.00;32.13;;;3.30;99.90;;;;;;5011795;28;20073;-85
2022/01/12 00:13:25;;;;;;;109.80;32.45;;;3.30;99.90;;;;;;4995554;28;20053;-85
2022/01/12 00:15:52;;;;;;;111.68;33.22;;;4.00;99.90;;;;;;5011844;28;20042;-83
2022/01/12 00:18:18;;;;;;;111.13;33.05;;;3.30;99.90;;;;;;5047753;28;20061;-88
2022/01/12 00:20:44;;;;;;;114.55;32.22;;;3.30;99.90;;;;;;5035583;28;20049;-85
2022/01/12 00:23:10;;;;;;;112.05;35.05;;;3.30;99.90;;;;;;5054266;28;20083;-82
2022/01/12 00:25:56;;;;;;;109.18;32.40;;;3.30;99.90;;;;;;5053827;28;20051;-84
2022/01/12 00:34:00;;;;;;;101.38;32.05;;;3.40;99.90;;;;;;5053478;28;20041;-84
2022/01/12 00:36:28;;;;;;;127.60;34.85;;;3.30;99.90;;;;;;5051976;28;20522;-83
2022/01/12 00:38:54;;;;;;;113.90;33.17;;;3.80;99.90;;;;;;5053700;28;20078;-84
2022/01/12 00:41:21;;;;;;;124.13;32.17;;;3.30;99.90;;;;;;5053865;28;20586;-86
2022/01/12 00:43:50;;;;;;;128.90;35.75;;;3.30;99.90;;;;;;5053779;28;20059;-84
2022/01/12 00:46:16;;;;;;;138.75;34.28;;;3.90;99.90;;;;;;5053546;28;20056;-85
2022/01/12 00:48:42;;;;;;;149.13;35.28;;;3.30;99.90;;;;;;5035095;28;20091;-83
2022/01/12 00:51:11;;;;;;;135.43;33.83;;;3.40;99.90;;;;;;5054159;28;20096;-84
2022/01/12 00:53:37;;;;;;;138.57;36.28;;;3.40;99.90;;;;;;5053654;28;20049;-81
2022/01/12 00:56:03;;;;;;;135.80;35.00;;;3.40;99.90;;;;;;5036202;28;20519;-84
2022/01/12 00:58:29;;;;;;;125.72;33.33;;;3.40;99.90;;;;;;5054149;28;20037;-84
2022/01/12 01:00:54;;;;;;;131.50;33.55;;;4.30;99.90;;;;;;5053475;28;20511;-86
2022/01/12 01:03:20;;;;;;;138.60;34.10;;;3.40;99.90;;;;;;5069371;28;20388;-84
2022/01/12 01:05:46;;;;;;;179.43;34.65;;;4.00;99.90;;;;;;5053080;28;20502;-85
2022/01/12 01:08:11;;;;;;;130.43;32.60;;;4.30;99.90;;;;;;5053378;28;20049;-84
2022/01/12 01:13:04;;;;;;;139.55;33.92;;;3.40;99.90;;;;;;5053813;28;20068;-84
2022/01/12 01:26:28;;;;;;;138.32;35.72;;;3.40;99.90;;;;;;5043948;28;20523;-84
2022/01/12 01:28:54;;;;;;;209.07;37.20;;;3.40;99.90;;;;;;5053114;28;20095;-82
2022/01/12 01:31:21;;;;;;;141.20;34.67;;;3.40;99.90;;;;;;5052446;28;20040;-83
2022/01/12 01:33:47;;;;;;;278.38;41.92;;;3.40;99.90;;;;;;5052883;28;20044;-83
2022/01/12 01:36:15;;;;;;;157.23;33.95;;;3.40;99.90;;;;;;5052650;28;20045;-82
2022/01/12 01:38:41;;;;;;;229.27;39.08;;;3.40;99.90;;;;;;5052511;28;20527;-83
2022/01/12 01:41:12;;;;;;;258.58;38.92;;;3.40;99.90;;;;;;5052308;28;20080;-83
2022/01/12 01:44:04;;;;;;;221.10;38.20;;;3.40;99.90;;;;;;5052366;28;20586;-85
2022/01/12 01:54:43;;;;;;;322.45;42.00;;;3.50;99.90;;;;;;5010019;28;20535;-84
2022/01/12 01:57:09;;;;;;;235.90;38.20;;;3.40;99.90;;;;;;5008270;28;20058;-83
2022/01/12 01:59:35;;;;;;;478.58;49.47;;;3.50;99.90;;;;;;4993360;28;20062;-84
2022/01/12 02:02:00;;;;;;;297.05;41.13;;;3.50;99.90;;;;;;5009667;28;20859;-84
2022/01/12 02:04:26;;;;;;;320.58;41.38;;;3.50;99.90;;;;;;5009618;28;20092;-84
2022/01/12 02:06:54;;;;;;;136.27;32.10;;;3.40;99.90;;;;;;4993246;28;20158;-84
2022/01/12 02:09:21;;;;;;;226.75;36.22;;;3.50;99.90;;;;;;5009124;28;20131;-83
2022/01/12 02:11:51;;;;;;;152.80;32.53;;;3.50;99.90;;;;;;5009632;28;20109;-83
2022/01/12 02:14:17;;;;;;;201.68;34.88;;;3.50;99.90;;;;;;5009346;28;20458;-86
2022/01/12 02:16:58;;;;;;;175.45;33.95;;;4.30;99.90;;;;;;5005005;28;20073;-83
2022/01/12 02:19:51;;;;;;;306.75;40.58;;;3.50;99.90;;;;;;4989767;28;20065;-83
2022/01/12 02:36:21;;;;;;;94.75;28.75;;;4.40;99.90;;;;;;5013341;28;20497;-84
2022/01/12 02:41:31;;;;;;;101.77;29.20;;;3.60;99.90;;;;;;5031092;28;20091;-84
2022/01/12 02:54:47;;;;;;;86.20;26.13;;;3.50;99.90;;;;;;5030437;28;20114;-85
2022/01/12 02:57:13;;;;;;;79.10;26.85;;;3.50;99.90;;;;;;5031038;28;20535;-84
2022/01/12 02:59:56;;;;;;;87.40;27.98;;;3.50;99.90;;;;;;5030885;28;20047;-84
2022/01/12 03:02:41;;;;;;;91.10;28.63;;;3.50;99.90;;;;;;5031071;28;20045;-83
2022/01/12 03:07:46;;;;;;;97.95;27.55;;;3.50;99.90;;;;;;5013369;28;20057;-89
2022/01/12 03:10:13;;;;;;;76.07;27.05;;;3.50;99.90;;;;;;5045683;28;20060;-85
2022/01/12 03:12:41;;;;;;;120.82;26.52;;;3.50;99.90;;;;;;4996633;28;20049;-84
2022/01/12 03:15:07;;;;;;;77.30;25.20;;;3.50;99.90;;;;;;5030919;28;20053;-83
2022/01/12 03:17:34;;;;;;;108.05;25.20;;;3.50;99.90;;;;;;5030650;28;20128;-83
2022/01/12 03:20:00;;;;;;;129.40;25.13;;;3.50;99.90;;;;;;5030670;28;20055;-83
2022/01/12 03:22:26;;;;;;;250.00;30.42;;;3.50;99.90;;;;;;5030456;28;20057;-83
2022/01/12 03:24:51;;;;;;;111.07;25.50;;;3.50;99.90;;;;;;5030296;28;20043;-83
2022/01/12 03:27:17;;;;;;;278.10;29.25;;;3.80;99.90;;;;;;5026927;28;20132;-83
2022/01/12 03:29:48;;;;;;;104.45;24.08;;;3.50;99.90;;;;;;5050602;28;20496;-83
2022/01/12 03:32:17;;;;;;;237.23;26.50;;;3.40;99.90;;;;;;5050394;28;20060;-83
2022/01/12 03:34:52;;;;;;;143.70;24.13;;;3.40;99.90;;;;;;5063319;28;20491;-83
2022/01/12 03:37:40;;;;;;;98.32;24.27;;;3.40;99.90;;;;;;5050156;28;20112;-83
2022/01/12 03:40:05;;;;;;;106.30;21.50;;;3.30;99.90;;;;;;5050241;28;20049;-85
2022/01/12 03:42:31;;;;;;;312.42;25.35;;;3.20;99.90;;;;;;5050133;28;20445;-84
2022/01/12 03:44:57;;;;;;;204.50;20.15;;;3.20;99.90;;;;;;5050431;28;20076;-84
2022/01/12 03:47:22;;;;;;;294.75;21.50;;;3.20;99.90;;;;;;5050362;28;20045;-84
2022/01/12 03:49:48;;;;;;;40.67;15.88;;;3.10;99.90;;;;;;5050531;28;20087;-86
2022/01/12 03:52:14;;;;;;;49.97;16.92;;;3.00;99.90;;;;;;5050056;28;20057;-85
2022/01/12 03:54:43;;;;;;;50.78;17.60;;;3.20;99.90;;;;;;5046173;28;20041;-89
2022/01/12 03:57:11;;;;;;;70.88;17.20;;;3.00;99.90;;;;;;5012942;28;20056;-83
2022/01/12 03:59:43;;;;;;;68.32;17.23;;;3.00;99.90;;;;;;5030818;28;20393;-84
2022/01/12 04:02:11;;;;;;;101.13;16.77;;;3.10;99.90;;;;;;5030886;28;20056;-84
2022/01/12 04:05:07;;;;;;;75.88;19.83;;;3.10;99.90;;;;;;5030720;28;20469;-85
2022/01/12 04:10:34;;;;;;;99.65;13.98;;;2.80;99.90;;;;;;5030471;28;20052;-84
2022/01/12 04:13:00;;;;;;;123.38;14.45;;;2.70;99.90;;;;;;5030184;28;20053;-86
2022/01/12 04:15:26;;;;;;;22.63;12.65;;;2.70;99.90;;;;;;5030133;28;20465;-84
2022/01/12 04:17:52;;;;;;;69.45;13.73;;;2.70;99.90;;;;;;5030578;28;20116;-83
2022/01/12 04:20:17;;;;;;;226.63;18.13;;;2.60;99.90;;;;;;5012016;28;20753;-84
2022/01/12 04:25:28;;;;;;;212.25;15.98;;;2.50;99.90;;;;;;5030027;28;20187;-84
2022/01/12 04:27:54;;;;;;;176.82;13.93;;;2.40;99.90;;;;;;5028897;28;20061;-84
2022/01/12 04:30:23;;;;;;;328.48;18.00;;;2.30;99.90;;;;;;5011906;28;20052;-87
2022/01/12 04:32:48;;;;;;;262.20;16.50;;;2.10;99.90;;;;;;5012543;28;20049;-84
2022/01/12 04:35:15;;;;;;;178.55;14.52;;;2.00;99.90;;;;;;5030180;28;20051;-84
2022/01/12 04:37:44;;;;;;;104.18;13.63;;;2.00;99.90;;;;;;5030194;28;20045;-84
2022/01/12 04:40:10;;;;;;;143.27;13.45;;;1.90;99.90;;;;;;5012935;28;20115;-84
2022/01/12 04:42:36;;;;;;;63.78;11.23;;;1.80;99.90;;;;;;5012327;28;20104;-85
2022/01/12 04:45:37;;;;;;;94.22;12.23;;;1.80;99.90;;;;;;5030658;28;20424;-85
2022/01/12 04:48:09;;;;;;;191.07;14.27;;;1.70;99.90;;;;;;5034627;28;20053;-85
2022/01/12 04:50:37;;;;;;;30.60;10.60;;;1.60;99.90;;;;;;5037354;28;20045;-84
2022/01/12 04:53:04;;;;;;;31.27;10.90;;;1.60;99.90;;;;;;5052779;28;20056;-88
2022/01/12 04:55:30;;;;;;;79.43;12.60;;;1.70;99.90;;;;;;5054731;28;20484;-84
2022/01/12 04:57:56;;;;;;;174.65;14.90;;;1.70;99.90;;;;;;5036612;28;20052;-84
2022/01/12 05:00:22;;;;;;;31.88;10.68;;;1.70;99.90;;;;;;5054415;28;20550;-83
2022/01/12 05:08:38;;;;;;;59.63;10.95;;;1.50;99.90;;;;;;5053817;28;20044;-85
2022/01/12 05:13:51;;;;;;;89.18;11.70;;;1.40;99.90;;;;;;5052924;28;20053;-85
2022/01/12 05:16:18;;;;;;;49.15;10.93;;;1.90;99.90;;;;;;5067203;28;20049;-82
2022/01/12 05:18:51;;;;;;;57.42;11.68;;;1.20;99.90;;;;;;5053014;28;20045;-84
2022/01/12 05:21:19;;;;;;;100.97;11.40;;;1.20;99.90;;;;;;5052755;28;20120;-83
2022/01/12 05:23:45;;;;;;;65.22;10.07;;;1.10;99.90;;;;;;5068313;28;20091;-85
2022/01/12 05:26:11;;;;;;;19.05;9.80;;;1.90;99.90;;;;;;5052810;28;20511;-86
2022/01/12 05:28:38;;;;;;;17.23;9.98;;;1.10;99.90;;;;;;5068145;28;20049;-85
2022/01/12 05:31:08;;;;;;;91.15;11.40;;;2.10;99.90;;;;;;5052845;28;20049;-84
2022/01/12 05:33:34;;;;;;;56.17;10.07;;;1.10;99.90;;;;;;5052590;28;20049;-87
2022/01/12 05:36:03;;;;;;;57.60;10.23;;;1.10;99.90;;;;;;5052739;28;20152;-84
2022/01/12 05:38:47;;;;;;;135.70;13.90;;;1.00;99.90;;;;;;5050514;28;20044;-85
2022/01/12 05:41:12;;;;;;;73.32;12.00;;;1.20;99.90;;;;;;5014948;28;20400;-85
2022/01/12 05:43:45;;;;;;;131.68;11.55;;;0.90;99.90;;;;;;5032632;28;20045;-85
2022/01/12 05:46:13;;;;;;;67.38;11.27;;;0.80;99.90;;;;;;5040157;28;20392;-84
2022/01/12 05:51:26;;;;;;;200.13;14.15;;;0.70;99.90;;;;;;5034756;28;20103;-84
2022/01/12 05:53:52;;;;;;;79.50;10.27;;;1.60;99.90;;;;;;5052334;28;20048;-85
2022/01/12 05:56:18;;;;;;;64.32;9.93;;;0.70;99.90;;;;;;5067923;28;20048;-84
2022/01/12 05:58:43;;;;;;;18.38;8.13;;;0.70;99.90;;;;;;5033024;28;20110;-87
2022/01/12 06:01:09;;;;;;;18.40;8.38;;;0.70;99.90;;;;;;5067678;28;20045;-84
2022/01/12 06:03:34;;;;;;;51.50;8.68;;;0.60;99.90;;;;;;5034128;28;20135;-84
2022/01/12 06:06:00;;;;;;;32.58;8.30;;;0.70;99.90;;;;;;5052068;28;20060;-85
2022/01/12 06:08:26;;;;;;;104.60;9.70;;;0.70;99.90;;;;;;5034086;28;20142;-84
2022/01/12 06:10:52;;;;;;;27.80;7.20;;;0.70;99.90;;;;;;5051909;28;20033;-85
2022/01/12 06:13:24;;;;;;;54.00;8.88;;;0.70;99.90;;;;;;5067520;28;20040;-85
2022/01/12 06:15:49;;;;;;;44.65;9.18;;;1.70;99.90;;;;;;5066471;28;20057;-85
2022/01/12 06:18:15;;;;;;;29.75;8.40;;;0.90;99.90;;;;;;5051838;28;20053;-85
2022/01/12 06:20:40;;;;;;;25.40;8.15;;;0.70;99.90;;;;;;5051281;28;20045;-84
2022/01/12 06:23:06;;;;;;;37.58;7.78;;;0.60;99.90;;;;;;5066599;28;20068;-84
2022/01/12 06:25:32;;;;;;;82.78;11.98;;;0.70;99.90;;;;;;5050953;28;20076;-85
2022/01/12 06:28:19;;;;;;;46.80;9.13;;;1.50;99.90;;;;;;5051650;28;20404;-84
2022/01/12 06:33:27;;;;;;;30.33;8.93;;;0.70;99.90;;;;;;5051434;28;20060;-85
2022/01/12 06:35:53;;;;;;;13.13;7.72;;;0.70;99.90;;;;;;5042820;28;20041;-85
2022/01/12 06:38:18;;;;;;;15.38;8.13;;;0.70;99.90;;;;;;5022559;28;20403;-83
2022/01/12 06:40:44;;;;;;;94.88;11.38;;;0.70;99.90;;;;;;5050376;28;20087;-83
2022/01/12 06:43:10;;;;;;;24.27;7.10;;;0.70;99.90;;;;;;5036911;28;20083;-85
2022/01/12 06:45:36;;;;;;;31.13;7.90;;;0.70;99.90;;;;;;5011558;28;20045;-85
2022/01/12 06:48:01;;;;;;;93.60;10.60;;;1.60;99.90;;;;;;5039829;28;20045;-85
2022/01/12 06:50:27;;;;;;;30.20;8.23;;;0.70;99.90;;;;;;5048908;28;20055;-85
2022/01/12 06:52:53;;;;;;;56.92;8.60;;;0.60;99.90;;;;;;5050477;28;20041;-85
2022/01/12 06:55:18;;;;;;;89.55;8.77;;;0.70;99.90;;;;;;5037355;28;20404;-85
2022/01/12 06:57:44;;;;;;;118.70;10.18;;;0.70;99.90;;;;;;5047780;28;20082;-85
2022/01/12 07:00:10;;;;;;;41.35;8.00;;;0.80;99.90;;;;;;5051199;28;20047;-85
2022/01/12 07:02:35;;;;;;;18.02;6.32;;;0.80;99.90;;;;;;5045233;28;20050;-85
2022/01/12 07:05:01;;;;;;;62.53;7.85;;;0.80;99.90;;;;;;5013051;28;20052;-86
2022/01/12 07:07:27;;;;;;;110.80;9.68;;;0.80;99.90;;;;;;5021098;28;20110;-85
2022/01/12 07:09:53;;;;;;;67.45;8.43;;;1.00;99.90;;;;;;5029152;28;20045;-87
2022/01/12 07:12:18;;;;;;;34.75;7.90;;;1.90;99.90;;;;;;5045393;28;20407;-87
2022/01/12 07:14:50;;;;;;;56.80;8.18;;;0.80;99.90;;;;;;5030832;28;20060;-85
2022/01/12 07:17:16;;;;;;;66.18;8.77;;;0.70;99.90;;;;;;5033532;28;20045;-85
2022/01/12 07:19:42;;;;;;;26.90;6.63;;;0.80;99.90;;;;;;5050948;28;20090;-85
2022/01/12 07:22:10;;;;;;;15.73;6.72;;;0.80;99.90;;;;;;5048677;28;20134;-84
2022/01/12 07:24:36;;;;;;;84.65;9.55;;;1.20;99.90;;;;;;5032257;28;20488;-85
2022/01/12 07:27:02;;;;;;;71.55;7.78;;;0.70;99.90;;;;;;5048161;28;20068;-85
2022/01/12 07:29:27;;;;;;;30.23;7.57;;;0.80;99.90;;;;;;5050251;28;20198;-87
2022/01/12 07:31:53;;;;;;;62.58;7.78;;;0.80;99.90;;;;;;5050673;28;20143;-87
2022/01/12 07:34:19;;;;;;;40.80;8.73;;;0.80;99.90;;;;;;5050673;28;20044;-85
2022/01/12 07:36:44;;;;;;;40.75;7.03;;;0.70;99.90;;;;;;5048892;28;20041;-85
2022/01/12 07:39:13;;;;;;;24.52;7.10;;;1.10;99.90;;;;;;5048603;28;20037;-87
2022/01/12 07:41:39;;;;;;;22.13;6.70;;;1.20;99.90;;;;;;5048481;28;20135;-85
2022/01/12 07:44:05;;;;;;;40.97;7.95;;;0.80;99.90;;;;;;5050470;28;20451;-89
2022/01/12 07:46:31;;;;;;;16.08;6.65;;;1.90;99.90;;;;;;5048241;28;20041;-86
2022/01/12 07:48:57;;;;;;;36.55;8.27;;;0.80;99.90;;;;;;5047300;28;20120;-85
2022/01/12 07:51:22;;;;;;;27.33;7.10;;;0.80;99.90;;;;;;5050240;28;20041;-87
2022/01/12 07:53:48;;;;;;;22.30;7.97;;;0.80;99.90;;;;;;5052252;23;20041;-84
2022/01/12 07:56:14;;;;;;;32.10;7.80;;;0.80;99.90;;;;;;5049323;28;20500;-86
2022/01/12 07:58:39;;;;;;;69.20;9.60;;;0.80;99.90;;;;;;5050906;28;20048;-89
2022/01/12 08:01:05;;;;;;;16.00;7.45;;;0.80;99.90;;;;;;5051195;28;20684;-85
2022/01/12 08:03:31;;;;;;;11.82;7.35;;;1.70;99.90;;;;;;5049415;28;20065;-88
2022/01/12 08:05:59;;;;;;;13.98;6.80;;;0.80;99.90;;;;;;5048706;28;20049;-87
2022/01/12 08:08:25;;;;;;;15.07;6.43;;;1.60;99.90;;;;;;5048792;28;20385;-85
2022/01/12 08:10:50;;;;;;;22.92;6.55;;;1.60;99.90;;;;;;5047986;28;20064;-86
2022/01/12 08:13:16;;;;;;;27.38;6.53;;;0.80;99.90;;;;;;5050307;28;20083;-83
2022/01/12 08:15:42;;;;;;;25.67;7.20;;;0.80;99.90;;;;;;5050155;28;20095;-85
2022/01/12 08:18:07;;;;;;;36.75;7.10;;;0.80;99.90;;;;;;5048320;28;20052;-84
2022/01/12 08:20:33;;;;;;;61.55;8.23;;;0.80;99.90;;;;;;5048000;28;20059;-84
2022/01/12 08:22:59;;;;;;;73.35;8.48;;;0.90;99.90;;;;;;5050930;28;20088;-89
2022/01/12 08:25:25;;;;;;;71.13;8.60;;;1.60;99.90;;;;;;5053924;28;20083;-86
2022/01/12 08:27:51;;;;;;;60.83;8.30;;;0.90;99.90;;;;;;5054138;28;20471;-87
2022/01/12 08:30:19;;;;;;;102.55;9.73;;;1.90;99.90;;;;;;5053888;28;20052;-86
2022/01/12 08:32:51;;;;;;;52.83;9.23;;;0.90;99.90;;;;;;5052603;28;20037;-88
2022/01/12 08:35:18;;;;;;;81.68;9.05;;;0.90;99.90;;;;;;5053984;28;20115;-85
2022/01/12 08:37:44;;;;;;;76.35;8.50;;;0.80;99.90;;;;;;5053621;28;20144;-87
2022/01/12 08:40:12;;;;;;;62.22;7.53;;;0.90;99.90;;;;;;5053683;28;20128;-87
2022/01/12 08:42:37;;;;;;;65.90;7.20;;;0.90;99.90;;;;;;5053273;28;20587;-85
2022/01/12 08:45:05;;;;;;;38.45;6.22;;;0.90;99.90;;;;;;5053844;28;20104;-84
2022/01/12 08:47:31;;;;;;;36.10;5.97;;;1.00;99.90;;;;;;5053158;28;20052;-86
2022/01/12 08:49:56;;;;;;;43.55;6.57;;;0.90;99.90;;;;;;5052365;28;20055;-85
2022/01/12 08:52:23;;;;;;;36.88;6.50;;;1.00;99.90;;;;;;5041983;28;20063;-84
2022/01/12 08:54:49;;;;;;;18.75;5.70;;;0.90;99.90;;;;;;5018647;28;20080;-85
2022/01/12 08:57:15;;;;;;;33.08;5.75;;;1.00;99.90;;;;;;5051744;28;20506;-83
2022/01/12 08:59:44;;;;;;;31.50;5.55;;;2.00;99.90;;;;;;5052010;28;20095;-85
2022/01/12 09:02:13;;;;;;;43.08;6.32;;;1.10;99.90;;;;;;5051618;28;20064;-84
2022/01/12 09:04:51;;;;;;;43.88;7.38;;;1.80;99.90;;;;;;5053234;28;20472;-84
2022/01/12 09:07:17;;;;;;;27.75;6.82;;;1.80;99.90;;;;;;5052978;28;20073;-83
2022/01/12 09:09:42;;;;;;;24.20;6.80;;;1.20;99.90;;;;;;5035167;28;20077;-82
2022/01/12 09:12:14;;;;;;;38.47;8.02;;;1.60;99.90;;;;;;5034531;28;20049;-82
2022/01/12 09:14:40;;;;;;;31.23;7.55;;;2.50;99.90;;;;;;5052755;28;20041;-84
2022/01/12 09:17:15;;;;;;;45.40;8.07;;;1.30;99.90;;;;;;5053032;28;20044;-81
2022/01/12 09:19:41;;;;;;;;;;;2.00;99.90;;;;;;5035912;28;20051;-81
2022/01/12 09:22:06;;;;;;;20.63;5.55;;;1.40;99.90;;;;;;5051558;28;20758;-83
2022/01/12 09:24:32;;;;;;;44.13;6.97;;;1.40;99.90;;;;;;5053168;28;20538;-82
2022/01/12 09:26:58;;;;;;;29.90;6.68;;;1.50;99.90;;;;;;5052723;28;20131;-82
2022/01/12 09:29:23;;;;;;;24.83;6.45;;;1.50;99.90;;;;;;5052713;28;20077;-87
2022/01/12 09:31:50;;;;;;;37.88;6.80;;;1.60;99.90;;;;;;5051612;28;20443;-84
2022/01/12 09:34:15;;;;;;;19.00;6.78;;;1.60;99.90;;;;;;5052743;28;20041;-84
2022/01/12 09:36:41;;;;;;;29.35;6.72;;;1.70;99.90;;;;;;5052701;28;20045;-84
2022/01/12 09:39:08;;;;;;;38.33;6.30;;;1.80;99.90;;;;;;5053038;28;20045;-86
2022/01/12 09:41:34;;;;;;;86.63;9.02;;;1.80;99.90;;;;;;5052949;28;20480;-85
2022/01/12 09:44:01;;;;;;;79.03;8.05;;;1.90;99.90;;;;;;5052465;28;20045;-86
2022/01/12 09:46:27;;;;;;;89.60;7.90;;;1.90;99.90;;;;;;5052917;28;20512;-85
2022/01/12 09:48:54;;;;;;;141.65;9.13;;;2.00;99.90;;;;;;5051424;28;20056;-86
2022/01/12 09:51:22;;;;;;;190.18;11.02;;;3.00;99.90;;;;;;5052314;28;20098;-83
2022/01/12 09:53:49;;;;;;;174.77;10.18;;;2.10;99.90;;;;;;5053164;28;20051;-89
2022/01/12 09:56:24;;;;;;;186.88;11.40;;;2.20;99.90;;;;;;5052630;28;20407;-86
2022/01/12 09:58:53;;;;;;;169.45;11.52;;;2.20;99.90;;;;;;5052380;28;20059;-84
2022/01/12 10:01:31;;;;;;;194.60;11.13;;;3.10;99.90;;;;;;5034738;28;20041;-87
2022/01/12 10:04:12;;;;;;;216.10;12.25;;;2.40;99.90;;;;;;5051345;28;20052;-89
2022/01/12 10:06:59;;;;;;;187.00;10.40;;;3.20;99.90;;;;;;5052674;28;20091;-89
2022/01/12 10:09:33;;;;;;;187.88;11.57;;;2.50;99.90;;;;;;5052588;28;20052;-90
2022/01/12 10:12:01;;;;;;;223.35;11.50;;;2.90;99.90;;;;;;5050944;28;20057;-88
2022/01/12 10:14:51;;;;;;;180.10;10.63;;;3.40;99.90;;;;;;5052180;28;20040;-86
2022/01/12 10:17:19;;;;;;;140.43;9.82;;;2.70;99.90;;;;;;5050986;28;20053;-90
2022/01/12 10:19:45;;;;;;;194.93;11.52;;;2.90;99.90;;;;;;5051174;28;20079;-88
2022/01/12 10:22:16;;;;;;;181.38;10.93;;;2.80;99.90;;;;;;5052281;28;20049;-88
2022/01/12 10:24:45;;;;;;;258.90;13.10;;;2.90;99.90;;;;;;5052217;28;20041;-90
2022/01/12 10:27:13;;;;;;;179.10;10.02;;;3.00;99.90;;;;;;5050757;28;20951;-90
2022/01/12 10:29:39;;;;;;;200.63;11.07;;;3.10;99.90;;;;;;5052005;28;20500;-86
2022/01/12 10:32:08;;;;;;;152.90;8.55;;;3.10;99.90;;;;;;5051511;28;20522;-86
2022/01/12 10:34:40;;;;;;;91.72;8.60;;;3.20;99.90;;;;;;5032790;28;20056;-89
2022/01/12 10:37:09;;;;;;;261.02;12.13;;;3.90;99.90;;;;;;5051635;28;20060;-87
2022/01/12 10:39:39;;;;;;;161.98;9.27;;;3.30;99.90;;;;;;5051370;28;20048;-85
2022/01/12 10:42:07;;;;;;;90.32;8.35;;;3.40;99.90;;;;;;5032902;28;20407;-83
2022/01/12 10:44:38;;;;;;;127.25;8.10;;;3.40;99.90;;;;;;5050738;28;20055;-83
2022/01/12 10:47:06;;;;;;;160.18;9.45;;;3.40;99.90;;;;;;5050406;28;20469;-86
2022/01/12 10:49:35;;;;;;;97.00;8.43;;;3.50;99.90;;;;;;5051359;28;20041;-85
2022/01/12 10:52:00;;;;;;;87.95;7.95;;;3.60;99.90;;;;;;5033415;28;20187;-88
2022/01/12 10:54:26;;;;;;;83.30;8.15;;;3.70;99.90;;;;;;5071185;28;20143;-85
2022/01/12 10:56:52;;;;;;;96.82;9.23;;;3.70;99.90;;;;;;5070659;28;20052;-85
2022/01/12 10:59:21;;;;;;;105.38;8.65;;;3.80;99.90;;;;;;5070816;28;20059;-86
2022/01/12 11:01:47;;;;;;;58.78;6.45;;;3.80;99.90;;;;;;5070861;28;20309;-87
2022/01/12 11:04:13;;;;;;;67.85;6.63;;;3.90;99.90;;;;;;5054565;28;20044;-88
2022/01/12 11:06:39;;;;;;;71.85;8.15;;;4.00;99.90;;;;;;5071403;28;20128;-88
2022/01/12 11:09:05;;;;;;;56.15;6.22;;;4.00;99.90;;;;;;5070544;28;20045;-88
2022/01/12 11:11:32;;;;;;;67.28;7.25;;;4.40;99.90;;;;;;5071089;28;20056;-91
2022/01/12 11:13:59;;;;;;;85.85;8.63;;;4.10;99.90;;;;;;5070884;28;20724;-90
2022/01/12 11:16:27;;;;;;;61.58;6.55;;;4.20;99.90;;;;;;5070993;28;20050;-87
2022/01/12 11:18:55;;;;;;;70.75;7.22;;;4.20;99.90;;;;;;5052690;28;20044;-85
2022/01/12 11:21:21;;;;;;;111.00;7.80;;;4.20;99.90;;;;;;5070735;28;20044;-85
2022/01/12 11:23:47;;;;;;;71.47;7.50;;;4.30;99.90;;;;;;5070744;28;20492;-84
2022/01/12 11:26:19;;;;;;;76.57;7.78;;;4.30;99.90;;;;;;5070946;28;20084;-89
2022/01/12 11:28:46;;;;;;;59.03;7.65;;;4.30;99.90;;;;;;5069718;28;20048;-85
2022/01/12 11:31:18;;;;;;;55.40;7.13;;;5.20;99.90;;;;;;5070736;28;20083;-86
2022/01/12 11:33:45;;;;;;;47.63;7.32;;;4.40;99.90;;;;;;5070599;28;20044;-87
2022/01/12 11:36:19;;;;;;;84.25;8.77;;;4.50;99.90;;;;;;5069657;28;20044;-85
2022/01/12 11:38:50;;;;;;;43.08;7.88;;;5.30;99.90;;;;;;5070993;28;20056;-86
2022/01/12 11:41:22;;;;;;;35.72;8.40;;;4.60;99.90;;;;;;5070759;28;20044;-85
2022/01/12 11:44:07;;;;;;;30.65;8.43;;;4.70;99.90;;;;;;5070443;28;20079;-86
2022/01/12 11:46:48;;;;;;;38.70;9.50;;;4.70;99.90;;;;;;5070266;28;20082;-88
2022/01/12 11:49:52;;;;;;;32.78;8.63;;;4.80;99.90;;;;;;5069957;28;20380;-87
2022/01/12 11:52:25;;;;;;;29.58;8.35;;;5.50;99.90;;;;;;4988586;28;20121;-85
2022/01/12 11:54:53;;;;;;;34.47;8.48;;;4.80;99.90;;;;;;4988377;28;20417;-87
2022/01/12 11:57:34;;;;;;;40.92;9.45;;;4.80;99.90;;;;;;4973347;28;20474;-84
2022/01/12 12:00:14;;;;;;;42.55;9.35;;;4.80;99.90;;;;;;4976410;28;20567;-85
2022/01/12 12:02:43;;;;;;;28.77;9.23;;;5.10;99.90;;;;;;4992343;28;20433;-85
2022/01/12 12:05:13;;;;;;;36.50;9.25;;;4.90;99.90;;;;;;4992311;28;20046;-84
2022/01/12 12:07:55;;;;;;;35.83;9.52;;;4.90;99.90;;;;;;4992623;28;20497;-87
2022/01/12 12:10:23;;;;;;;39.40;10.25;;;4.90;99.90;;;;;;4992583;28;20557;-83
2022/01/12 12:12:56;;;;;;;38.65;10.60;;;4.90;99.90;;;;;;4976308;28;20102;-85
2022/01/12 12:15:23;;;;;;;41.83;10.52;;;5.40;99.90;;;;;;4992817;28;20046;-84
2022/01/12 12:17:50;;;;;;;39.25;10.88;;;5.00;99.90;;;;;;4992315;28;20058;-85
2022/01/12 12:20:19;;;;;;;45.78;11.65;;;5.10;99.90;;;;;;4991801;28;20054;-84
2022/01/12 12:22:46;;;;;;;43.60;11.15;;;5.10;99.90;;;;;;4992129;28;20054;-86
2022/01/12 12:25:18;;;;;;;39.70;11.10;;;6.00;99.90;;;;;;4982079;28;20050;-85
2022/01/12 12:27:55;;;;;;;32.05;11.13;;;5.20;99.90;;;;;;5073961;28;20058;-83
2022/01/12 12:30:31;;;;;;;38.72;11.15;;;5.20;99.90;;;;;;5073834;28;20044;-85
2022/01/12 12:33:06;;;;;;;42.00;11.00;;;5.20;99.90;;;;;;5073371;28;20486;-85
2022/01/12 12:35:34;;;;;;;34.65;11.45;;;5.20;99.90;;;;;;5073659;28;20079;-85
2022/01/12 12:38:03;;;;;;;41.00;11.10;;;5.20;99.90;;;;;;5073185;28;20048;-87
2022/01/12 12:40:30;;;;;;;34.78;10.45;;;5.60;99.90;;;;;;5071942;28;20106;-84
2022/01/12 12:43:25;;;;;;;54.00;12.13;;;5.20;99.90;;;;;;5073386;28;20078;-82
2022/01/12 12:45:59;;;;;;;;;;;5.20;99.90;;;;;;5072491;28;20048;-84
2022/01/12 12:48:28;;;;;;;32.13;11.38;;;5.20;99.90;;;;;;5071734;28;20379;-87
2022/01/12 12:51:04;;;;;;;48.58;11.18;;;5.20;99.90;;;;;;5057368;28;20426;-85
2022/01/12 12:53:32;;;;;;;45.53;10.38;;;5.20;99.90;;;;;;5055313;28;20491;-81
2022/01/12 12:55:58;;;;;;;36.90;10.57;;;6.20;99.90;;;;;;5061824;28;20060;-85
2022/01/12 12:58:25;;;;;;;33.75;10.43;;;5.30;99.90;;;;;;5073326;28;20087;-90
2022/01/12 13:00:52;;;;;;;34.08;10.15;;;5.30;99.90;;;;;;5073001;28;20067;-87
2022/01/12 13:03:17;;;;;;;61.38;10.60;;;5.30;99.90;;;;;;5073406;28;20051;-88
2022/01/12 13:05:43;;;;;;;41.70;9.98;;;5.20;99.90;;;;;;5073210;28;20127;-84
2022/01/12 13:08:10;;;;;;;38.15;9.75;;;5.20;99.90;;;;;;5072069;28;20051;-87
2022/01/12 13:10:36;;;;;;;61.40;9.90;;;5.20;99.90;;;;;;5072945;28;20075;-88
2022/01/12 13:13:05;;;;;;;34.30;8.50;;;5.20;99.90;;;;;;5072697;28;20048;-88
2022/01/12 13:15:32;;;;;;;31.92;10.20;;;5.20;99.90;;;;;;5071609;28;20048;-88
2022/01/12 13:18:18;;;;;;;40.47;10.20;;;5.20;99.90;;;;;;5071415;28;20503;-87
2022/01/12 13:21:09;;;;;;;58.75;8.77;;;5.40;99.90;;;;;;5055024;28;20437;-87
2022/01/12 13:23:49;;;;;;;43.85;8.88;;;5.10;99.90;;;;;;5054407;28;20048;-89
2022/01/12 13:26:22;;;;;;;29.42;9.60;;;5.10;99.90;;;;;;5054667;28;20048;-89
2022/01/12 13:28:48;;;;;;;41.78;9.10;;;5.10;99.90;;;;;;5073170;28;20466;-86
2022/01/12 13:31:16;;;;;;;45.72;9.75;;;5.00;99.90;;;;;;5071540;28;20127;-85
2022/01/12 13:33:51;;;;;;;42.45;9.38;;;5.00;99.90;;;;;;5059969;28;20452;-87
2022/01/12 13:36:22;;;;;;;37.85;8.02;;;5.00;99.90;;;;;;5069104;28;20041;-84
2022/01/12 13:38:55;;;;;;;22.83;8.95;;;5.00;99.90;;;;;;5072428;28;20048;-87
2022/01/12 13:41:25;;;;;;;35.40;9.02;;;5.10;99.90;;;;;;5072468;28;20083;-89
2022/01/12 13:44:16;;;;;;;31.48;9.30;;;4.90;99.90;;;;;;5071567;28;20395;-84
2022/01/12 13:46:52;;;;;;;29.17;8.50;;;4.90;99.90;;;;;;5072561;28;20044;-91
2022/01/12 13:51:55;;;;;;;34.45;9.70;;;5.40;99.90;;;;;;5072579;28;20044;-88
2022/01/12 13:54:27;;;;;;;32.38;10.10;;;4.90;99.90;;;;;;5070483;28;20054;-88
2022/01/12 13:56:54;;;;;;;26.95;10.18;;;5.30;99.90;;;;;;5070657;28;20056;-85
2022/01/12 13:59:24;;;;;;;33.58;10.38;;;4.90;99.90;;;;;;5071975;28;20149;-85
2022/01/12 14:01:49;;;;;;;26.77;9.25;;;4.90;99.90;;;;;;5071926;28;20060;-86
2022/01/12 14:04:42;;;;;;;27.73;9.95;;;4.90;99.90;;;;;;5070719;28;20045;-87
2022/01/12 14:07:11;;;;;;;24.58;10.20;;;5.80;99.90;;;;;;5072154;28;20053;-89